Time,TemperatureF,DewpointF,PressureIn,WindDirection,WindDirectionDegrees,WindSpeedMPH,WindSpeedGustMPH,Humidity,HourlyPrecipIn,Conditions,Clouds,dailyrainin,SoftwareType,DateUTC
2013-11-15 00:01:00,49.2,47.0,30.32,ESE,106,0.0,0.0,92,0.00,,,0.00,Wunderground v.1.15,2013-11-15 05:01:00,
2013-11-15 00:02:00,49.2,47.0,30.32,ESE,106,0.0,0.0,92,0.00,,,0.00,Wunderground v.1.15,2013-11-15 05:02:00,
2013-11-15 00:03:00,49.2,47.0,30.32,ESE,106,0.0,0.0,92,0.00,,,0.00,Wunderground v.1.15,2013-11-15 05:03:00,
2013-11-15 00:06:00,49.2,47.0,30.32,ESE,106,0.0,0.0,92,0.00,,,0.00,Wunderground v.1.15,2013-11-15 05:06:00,
2013-11-15 00:08:00,49.2,47.0,30.32,ESE,106,0.0,0.0,92,0.00,,,0.00,Wunderground v.1.15,2013-11-15 05:08:00,
2013-11-15 00:10:00,49.2,47.0,30.32,ESE,106,0.0,0.0,92,0.00,,,0.00,Wunderground v.1.15,2013-11-15 05:10:00,
2013-11-15 00:15:00,49.2,47.0,30.33,ESE,106,0.0,0.0,92,0.00,,,0.00,Wunderground v.1.15,2013-11-15 05:15:00,
2013-11-15 00:21:00,49.2,47.0,30.33,ESE,106,0.0,0.0,92,0.00,,,0.00,Wunderground v.1.15,2013-11-15 05:21:00,
2013-11-15 00:26:00,49.2,47.0,30.33,ESE,106,0.0,0.0,92,0.00,,,0.00,Wunderground v.1.15,2013-11-15 05:26:00,
2013-11-15 00:32:00,49.2,47.0,30.32,ESE,112,0.0,0.0,92,0.00,,,0.00,Wunderground v.1.15,2013-11-15 05:32:00,
2013-11-15 00:38:00,49.2,47.0,30.32,ESE,112,0.0,0.0,92,0.00,,,0.00,Wunderground v.1.15,2013-11-15 05:38:00,
2013-11-15 00:44:00,49.1,46.9,30.32,ESE,112,0.0,0.0,92,0.00,,,0.00,Wunderground v.1.15,2013-11-15 05:44:00,
2013-11-15 00:49:00,49.1,46.9,30.32,ESE,112,0.0,0.0,92,0.00,,,0.00,Wunderground v.1.15,2013-11-15 05:49:00,
2013-11-15 00:55:00,49.1,46.9,30.32,ESE,112,0.0,0.0,92,0.00,,,0.00,Wunderground v.1.15,2013-11-15 05:55:00,
2013-11-15 01:00:00,49.1,47.2,30.32,ESE,112,0.0,0.0,93,0.00,,,0.00,Wunderground v.1.15,2013-11-15 06:00:00,
2013-11-15 01:06:00,49.1,47.2,30.32,ESE,112,0.0,0.0,93,0.00,,,0.00,Wunderground v.1.15,2013-11-15 06:06:00,
2013-11-15 01:11:00,49.1,47.2,30.32,ESE,112,0.0,0.0,93,0.00,,,0.00,Wunderground v.1.15,2013-11-15 06:11:00,
2013-11-15 01:16:00,49.2,47.3,30.31,ESE,112,0.0,0.0,93,0.00,,,0.00,Wunderground v.1.15,2013-11-15 06:16:00,
2013-11-15 01:22:00,49.2,47.3,30.31,ESE,112,0.0,0.0,93,0.00,,,0.00,Wunderground v.1.15,2013-11-15 06:22:00,
2013-11-15 01:27:00,49.4,47.7,30.31,ESE,112,0.0,0.0,94,0.00,,,0.00,Wunderground v.1.15,2013-11-15 06:27:00,
2013-11-15 01:33:00,49.5,47.8,30.31,ESE,112,0.0,0.0,94,0.00,,,0.00,Wunderground v.1.15,2013-11-15 06:33:00,
2013-11-15 01:39:00,49.8,48.1,30.31,ESE,112,0.0,0.0,94,0.00,,,0.00,Wunderground v.1.15,2013-11-15 06:39:00,
2013-11-15 01:45:00,49.8,48.1,30.30,ESE,112,0.0,0.0,94,0.00,,,0.00,Wunderground v.1.15,2013-11-15 06:45:00,
2013-11-15 01:51:00,49.9,48.2,30.30,ESE,112,0.0,0.0,94,0.00,,,0.00,Wunderground v.1.15,2013-11-15 06:51:00,
2013-11-15 01:56:00,50.1,48.4,30.30,ESE,112,0.0,0.0,94,0.00,,,0.00,Wunderground v.1.15,2013-11-15 06:56:00,
2013-11-15 02:01:00,50.1,48.4,30.30,ESE,112,0.0,0.0,94,0.00,,,0.00,Wunderground v.1.15,2013-11-15 07:01:00,
2013-11-15 02:06:00,50.2,48.5,30.30,ESE,112,0.0,0.0,94,0.00,,,0.00,Wunderground v.1.15,2013-11-15 07:06:00,
2013-11-15 02:11:00,50.2,48.5,30.30,SE,143,1.0,1.0,94,0.00,,,0.00,Wunderground v.1.15,2013-11-15 07:11:00,
2013-11-15 02:16:00,50.4,48.7,30.30,SE,146,0.0,1.0,94,0.00,,,0.00,Wunderground v.1.15,2013-11-15 07:16:00,
2013-11-15 02:21:00,50.4,48.7,30.30,SE,146,0.0,0.0,94,0.00,,,0.00,Wunderground v.1.15,2013-11-15 07:21:00,
2013-11-15 02:26:00,50.5,49.1,30.30,SE,146,0.0,0.0,95,0.00,,,0.00,Wunderground v.1.15,2013-11-15 07:26:00,
2013-11-15 02:31:00,50.7,49.3,30.31,SE,146,0.0,0.0,95,0.00,,,0.00,Wunderground v.1.15,2013-11-15 07:31:00,
2013-11-15 02:36:00,50.8,49.4,30.31,SE,146,0.0,0.0,95,0.00,,,0.00,Wunderground v.1.15,2013-11-15 07:36:00,
2013-11-15 02:41:00,51.0,49.6,30.31,SE,146,0.0,0.0,95,0.00,,,0.00,Wunderground v.1.15,2013-11-15 07:41:00,
2013-11-15 02:46:00,51.1,49.7,30.30,SE,146,0.0,0.0,95,0.00,,,0.00,Wunderground v.1.15,2013-11-15 07:46:00,
2013-11-15 02:51:00,51.3,49.9,30.30,SE,146,0.0,0.0,95,0.00,,,0.00,Wunderground v.1.15,2013-11-15 07:51:00,
2013-11-15 02:57:00,51.6,50.2,30.30,SE,146,0.0,0.0,95,0.00,,,0.00,Wunderground v.1.15,2013-11-15 07:57:00,
2013-11-15 03:02:00,51.6,50.2,30.30,SE,146,0.0,2.0,95,0.00,,,0.00,Wunderground v.1.15,2013-11-15 08:02:00,
2013-11-15 03:07:00,51.7,50.3,30.30,SE,146,0.0,2.0,95,0.00,,,0.00,Wunderground v.1.15,2013-11-15 08:07:00,
2013-11-15 03:12:00,51.9,50.5,30.30,SE,146,0.0,0.0,95,0.00,,,0.00,Wunderground v.1.15,2013-11-15 08:12:00,
2013-11-15 03:17:00,51.7,50.0,30.30,SE,146,0.0,0.0,94,0.00,,,0.00,Wunderground v.1.15,2013-11-15 08:17:00,
2013-11-15 03:22:00,51.7,50.0,30.30,SE,146,3.0,3.0,94,0.00,,,0.00,Wunderground v.1.15,2013-11-15 08:22:00,
2013-11-15 03:27:00,51.6,49.9,30.30,SE,146,0.0,3.0,94,0.00,,,0.00,Wunderground v.1.15,2013-11-15 08:27:00,
2013-11-15 03:32:00,51.6,49.6,30.30,SE,146,0.0,0.0,93,0.00,,,0.00,Wunderground v.1.15,2013-11-15 08:32:00,
2013-11-15 03:37:00,51.6,49.6,30.30,SE,146,0.0,0.0,93,0.00,,,0.00,Wunderground v.1.15,2013-11-15 08:37:00,
2013-11-15 03:42:00,51.4,49.4,30.30,SE,146,0.0,0.0,93,0.00,,,0.00,Wunderground v.1.15,2013-11-15 08:42:00,
2013-11-15 03:48:00,51.4,49.4,30.30,NNW,329,0.0,1.0,93,0.00,,,0.00,Wunderground v.1.15,2013-11-15 08:48:00,
2013-11-15 03:53:00,51.4,49.4,30.30,NNW,329,0.0,0.0,93,0.00,,,0.00,Wunderground v.1.15,2013-11-15 08:53:00,
2013-11-15 03:58:00,51.3,49.3,30.30,NNW,329,0.0,0.0,93,0.00,,,0.00,Wunderground v.1.15,2013-11-15 08:58:00,
2013-11-15 04:03:00,51.3,49.3,30.29,NNW,329,0.0,0.0,93,0.00,,,0.00,Wunderground v.1.15,2013-11-15 09:03:00,
2013-11-15 04:08:00,51.1,49.1,30.29,East,95,0.0,1.0,93,0.00,,,0.00,Wunderground v.1.15,2013-11-15 09:08:00,
2013-11-15 04:13:00,51.1,49.1,30.29,East,95,0.0,0.0,93,0.00,,,0.00,Wunderground v.1.15,2013-11-15 09:13:00,
2013-11-15 04:18:00,51.1,49.4,30.29,East,95,0.0,0.0,94,0.00,,,0.00,Wunderground v.1.15,2013-11-15 09:18:00,
2013-11-15 04:23:00,51.1,49.4,30.29,East,95,0.0,0.0,94,0.00,,,0.00,Wunderground v.1.15,2013-11-15 09:23:00,
2013-11-15 04:29:00,51.3,49.6,30.28,South,174,0.0,2.0,94,0.00,,,0.00,Wunderground v.1.15,2013-11-15 09:29:00,
2013-11-15 04:34:00,51.3,49.6,30.28,South,174,0.0,1.0,94,0.00,,,0.00,Wunderground v.1.15,2013-11-15 09:34:00,
2013-11-15 04:39:00,51.4,49.7,30.28,West,267,0.0,1.0,94,0.00,,,0.00,Wunderground v.1.15,2013-11-15 09:39:00,
2013-11-15 04:44:00,51.6,49.9,30.28,West,281,0.0,1.0,94,0.00,,,0.00,Wunderground v.1.15,2013-11-15 09:44:00,
2013-11-15 04:49:00,51.6,49.9,30.28,West,281,0.0,1.0,94,0.00,,,0.00,Wunderground v.1.15,2013-11-15 09:49:00,
2013-11-15 04:54:00,51.6,49.9,30.28,WSW,252,0.0,1.0,94,0.00,,,0.00,Wunderground v.1.15,2013-11-15 09:54:00,
2013-11-15 05:00:00,51.7,50.0,30.28,WSW,252,0.0,0.0,94,0.00,,,0.00,Wunderground v.1.15,2013-11-15 10:00:00,
2013-11-15 05:05:00,51.7,50.0,30.28,WSW,252,0.0,1.0,94,0.00,,,0.00,Wunderground v.1.15,2013-11-15 10:05:00,
2013-11-15 05:10:00,51.7,50.0,30.28,WSW,252,0.0,0.0,94,0.00,,,0.00,Wunderground v.1.15,2013-11-15 10:10:00,
2013-11-15 05:15:00,51.9,50.2,30.28,WSW,252,0.0,0.0,94,0.00,,,0.00,Wunderground v.1.15,2013-11-15 10:15:00,
2013-11-15 05:20:00,51.9,50.2,30.28,West,263,0.0,0.0,94,0.00,,,0.00,Wunderground v.1.15,2013-11-15 10:20:00,
2013-11-15 05:25:00,52.0,50.6,30.28,West,263,0.0,0.0,95,0.00,,,0.00,Wunderground v.1.15,2013-11-15 10:25:00,
2013-11-15 05:30:00,52.2,50.8,30.29,West,263,0.0,0.0,95,0.00,,,0.00,Wunderground v.1.15,2013-11-15 10:30:00,
2013-11-15 05:35:00,52.3,50.9,30.29,West,263,0.0,0.0,95,0.00,,,0.00,Wunderground v.1.15,2013-11-15 10:35:00,
2013-11-15 05:40:00,52.3,50.9,30.29,West,263,0.0,0.0,95,0.00,,,0.00,Wunderground v.1.15,2013-11-15 10:40:00,
2013-11-15 05:45:00,52.5,51.1,30.29,West,263,0.0,0.0,95,0.00,,,0.00,Wunderground v.1.15,2013-11-15 10:45:00,
2013-11-15 05:50:00,52.6,51.2,30.29,West,263,0.0,0.0,95,0.00,,,0.00,Wunderground v.1.15,2013-11-15 10:50:00,
2013-11-15 05:55:00,52.8,51.7,30.29,North,2,0.0,2.0,96,0.00,,,0.00,Wunderground v.1.15,2013-11-15 10:55:00,
2013-11-15 06:01:00,52.9,51.8,30.29,North,2,0.0,0.0,96,0.00,,,0.00,Wunderground v.1.15,2013-11-15 11:01:00,
2013-11-15 06:06:00,53.2,52.1,30.29,NW,315,0.0,0.0,96,0.00,,,0.00,Wunderground v.1.15,2013-11-15 11:06:00,
2013-11-15 06:11:00,53.5,52.4,30.29,NW,315,0.0,0.0,96,0.00,,,0.00,Wunderground v.1.15,2013-11-15 11:11:00,
2013-11-15 06:16:00,53.8,53.0,30.29,NW,315,0.0,0.0,97,0.00,,,0.00,Wunderground v.1.15,2013-11-15 11:16:00,
2013-11-15 06:21:00,53.9,53.1,30.29,NW,317,0.0,0.0,97,0.00,,,0.00,Wunderground v.1.15,2013-11-15 11:21:00,
2013-11-15 06:26:00,54.2,53.4,30.29,NW,317,0.0,1.0,97,0.00,,,0.00,Wunderground v.1.15,2013-11-15 11:26:00,
2013-11-15 06:31:00,54.4,53.6,30.30,SSE,147,1.0,3.0,97,0.00,,,0.00,Wunderground v.1.15,2013-11-15 11:31:00,
2013-11-15 06:36:00,54.7,54.1,30.30,SSE,150,0.0,3.0,98,0.00,,,0.00,Wunderground v.1.15,2013-11-15 11:36:00,
2013-11-15 06:41:00,54.8,54.0,30.30,SE,128,0.0,2.0,97,0.00,,,0.00,Wunderground v.1.15,2013-11-15 11:41:00,
2013-11-15 06:47:00,54.8,54.0,30.30,SE,128,0.0,2.0,97,0.00,,,0.00,Wunderground v.1.15,2013-11-15 11:47:00,
2013-11-15 06:52:00,54.8,54.0,30.30,SE,128,0.0,1.0,97,0.00,,,0.00,Wunderground v.1.15,2013-11-15 11:52:00,
2013-11-15 06:57:00,54.8,54.0,30.30,SE,129,0.0,2.0,97,0.00,,,0.00,Wunderground v.1.15,2013-11-15 11:57:00,
2013-11-15 07:02:00,54.8,53.7,30.31,SE,143,0.0,1.0,96,0.00,,,0.00,Wunderground v.1.15,2013-11-15 12:02:00,
2013-11-15 07:07:00,54.7,53.6,30.31,SE,143,0.0,1.0,96,0.00,,,0.00,Wunderground v.1.15,2013-11-15 12:07:00,
2013-11-15 07:12:00,54.7,53.6,30.31,SE,143,0.0,1.0,96,0.00,,,0.00,Wunderground v.1.15,2013-11-15 12:12:00,
2013-11-15 07:17:00,54.7,53.6,30.30,SE,143,0.0,1.0,96,0.00,,,0.00,Wunderground v.1.15,2013-11-15 12:17:00,
2013-11-15 07:22:00,54.7,53.3,30.30,SW,231,0.0,1.0,95,0.00,,,0.00,Wunderground v.1.15,2013-11-15 12:22:00,
2013-11-15 07:27:00,54.7,53.3,30.30,West,262,0.0,1.0,95,0.00,,,0.00,Wunderground v.1.15,2013-11-15 12:27:00,
2013-11-15 07:32:00,54.8,53.4,30.29,West,262,0.0,0.0,95,0.00,,,0.00,Wunderground v.1.15,2013-11-15 12:32:00,
2013-11-15 07:37:00,54.8,53.4,30.29,SE,126,0.0,2.0,95,0.00,,,0.00,Wunderground v.1.15,2013-11-15 12:37:00,
2013-11-15 07:42:00,55.0,53.6,30.29,South,180,0.0,0.0,95,0.00,,,0.00,Wunderground v.1.15,2013-11-15 12:42:00,
2013-11-15 07:47:00,55.1,53.7,30.30,South,180,0.0,1.0,95,0.00,,,0.00,Wunderground v.1.15,2013-11-15 12:47:00,
2013-11-15 07:52:00,55.1,53.7,30.30,SW,222,0.0,2.0,95,0.00,,,0.00,Wunderground v.1.15,2013-11-15 12:52:00,
2013-11-15 07:57:00,55.3,53.9,30.30,ESE,112,0.0,2.0,95,0.00,,,0.00,Wunderground v.1.15,2013-11-15 12:57:00,
2013-11-15 08:02:00,55.4,53.7,30.30,ESE,112,0.0,0.0,94,0.00,,,0.00,Wunderground v.1.15,2013-11-15 13:02:00,
2013-11-15 08:07:00,55.6,53.9,30.30,ESE,112,0.0,0.0,94,0.00,,,0.00,Wunderground v.1.15,2013-11-15 13:07:00,
2013-11-15 08:13:00,55.7,54.0,30.30,ESE,112,0.0,0.0,94,0.00,,,0.00,Wunderground v.1.15,2013-11-15 13:13:00,
2013-11-15 08:18:00,55.7,54.0,30.30,SE,137,0.0,0.0,94,0.00,,,0.00,Wunderground v.1.15,2013-11-15 13:18:00,
2013-11-15 08:23:00,55.7,54.0,30.30,SE,130,0.0,0.0,94,0.00,,,0.00,Wunderground v.1.15,2013-11-15 13:23:00,
2013-11-15 08:28:00,55.9,53.9,30.30,SE,130,0.0,1.0,93,0.00,,,0.00,Wunderground v.1.15,2013-11-15 13:28:00,
2013-11-15 08:33:00,55.9,53.9,30.30,SE,130,0.0,0.0,93,0.00,,,0.00,Wunderground v.1.15,2013-11-15 13:33:00,
2013-11-15 08:38:00,55.9,53.9,30.30,WNW,287,0.0,1.0,93,0.00,,,0.00,Wunderground v.1.15,2013-11-15 13:38:00,
2013-11-15 08:43:00,55.9,53.9,30.30,WNW,287,0.0,0.0,93,0.00,,,0.00,Wunderground v.1.15,2013-11-15 13:43:00,
2013-11-15 08:48:00,56.0,54.0,30.31,South,176,0.0,2.0,93,0.00,,,0.00,Wunderground v.1.15,2013-11-15 13:48:00,
2013-11-15 08:53:00,56.2,54.2,30.31,South,177,0.0,0.0,93,0.00,,,0.00,Wunderground v.1.15,2013-11-15 13:53:00,
2013-11-15 08:58:00,56.2,54.2,30.31,SE,139,0.0,3.0,93,0.00,,,0.00,Wunderground v.1.15,2013-11-15 13:58:00,
2013-11-15 09:04:00,56.3,54.3,30.31,SE,139,0.0,0.0,93,0.00,,,0.00,Wunderground v.1.15,2013-11-15 14:04:00,
2013-11-15 09:09:00,56.5,54.5,30.31,SSE,152,2.0,2.0,93,0.00,,,0.00,Wunderground v.1.15,2013-11-15 14:09:00,
2013-11-15 09:14:00,56.6,54.3,30.31,SSE,152,0.0,3.0,92,0.00,,,0.00,Wunderground v.1.15,2013-11-15 14:14:00,
2013-11-15 09:19:00,56.9,54.6,30.31,SSE,152,0.0,3.0,92,0.00,,,0.00,Wunderground v.1.15,2013-11-15 14:19:00,
2013-11-15 09:24:00,57.0,54.7,30.31,SSE,157,0.0,0.0,92,0.00,,,0.00,Wunderground v.1.15,2013-11-15 14:24:00,
2013-11-15 09:29:00,57.2,54.9,30.31,SE,126,2.0,3.0,92,0.00,,,0.00,Wunderground v.1.15,2013-11-15 14:29:00,
2013-11-15 09:34:00,57.2,54.9,30.31,SE,126,0.0,0.0,92,0.00,,,0.00,Wunderground v.1.15,2013-11-15 14:34:00,
2013-11-15 09:39:00,57.3,54.7,30.31,SE,126,0.0,2.0,91,0.00,,,0.00,Wunderground v.1.15,2013-11-15 14:39:00,
2013-11-15 09:44:00,57.3,54.7,30.31,SE,126,0.0,0.0,91,0.00,,,0.00,Wunderground v.1.15,2013-11-15 14:44:00,
2013-11-15 09:49:00,57.5,54.9,30.31,SE,139,0.0,1.0,91,0.00,,,0.00,Wunderground v.1.15,2013-11-15 14:49:00,
2013-11-15 09:55:00,57.5,54.9,30.31,ESE,122,0.0,2.0,91,0.00,,,0.00,Wunderground v.1.15,2013-11-15 14:55:00,
2013-11-15 10:00:00,57.6,55.0,30.31,WNW,298,0.0,0.0,91,0.00,,,0.00,Wunderground v.1.15,2013-11-15 15:00:00,
2013-11-15 10:05:00,57.8,55.2,30.31,WNW,298,0.0,0.0,91,0.00,,,0.00,Wunderground v.1.15,2013-11-15 15:05:00,
2013-11-15 10:10:00,58.0,55.4,30.31,SE,140,0.0,0.0,91,0.00,,,0.00,Wunderground v.1.15,2013-11-15 15:10:00,
2013-11-15 10:15:00,58.1,55.5,30.31,SSW,194,0.0,4.0,91,0.00,,,0.00,Wunderground v.1.15,2013-11-15 15:15:00,
2013-11-15 10:20:00,58.3,55.4,30.31,SSE,163,0.0,1.0,90,0.00,,,0.00,Wunderground v.1.15,2013-11-15 15:20:00,
2013-11-15 10:25:00,58.4,55.5,30.31,SSE,149,0.0,3.0,90,0.00,,,0.00,Wunderground v.1.15,2013-11-15 15:25:00,
2013-11-15 10:30:00,58.6,55.7,30.31,ESE,113,0.0,1.0,90,0.00,,,0.00,Wunderground v.1.15,2013-11-15 15:30:00,
2013-11-15 10:35:00,58.7,55.8,30.31,ESE,113,2.0,2.0,90,0.00,,,0.00,Wunderground v.1.15,2013-11-15 15:35:00,
2013-11-15 10:40:00,58.7,55.5,30.31,SE,139,0.0,0.0,89,0.00,,,0.00,Wunderground v.1.15,2013-11-15 15:40:00,
2013-11-15 10:45:00,58.9,55.7,30.30,SE,139,0.0,1.0,89,0.00,,,0.00,Wunderground v.1.15,2013-11-15 15:45:00,
2013-11-15 10:50:00,59.0,56.1,30.30,SE,139,0.0,0.0,90,0.00,,,0.00,Wunderground v.1.15,2013-11-15 15:50:00,
2013-11-15 10:55:00,59.3,56.4,30.30,SE,139,0.0,2.0,90,0.00,,,0.00,Wunderground v.1.15,2013-11-15 15:55:00,
2013-11-15 11:00:00,59.3,56.1,30.30,SE,133,0.0,0.0,89,0.00,,,0.00,Wunderground v.1.15,2013-11-15 16:00:00,
2013-11-15 11:05:00,59.5,56.3,30.30,SE,133,0.0,3.0,89,0.00,,,0.00,Wunderground v.1.15,2013-11-15 16:05:00,
2013-11-15 11:10:00,59.8,56.6,30.30,SE,133,0.0,0.0,89,0.00,,,0.00,Wunderground v.1.15,2013-11-15 16:10:00,
2013-11-15 11:15:00,59.8,56.6,30.29,SE,133,0.0,0.0,89,0.00,,,0.00,Wunderground v.1.15,2013-11-15 16:15:00,
2013-11-15 11:20:00,59.9,56.6,30.29,SE,133,0.0,0.0,89,0.00,,,0.00,Wunderground v.1.15,2013-11-15 16:20:00,
2013-11-15 11:25:00,59.9,56.6,30.29,South,185,0.0,0.0,89,0.00,,,0.00,Wunderground v.1.15,2013-11-15 16:25:00,
2013-11-15 11:30:00,60.1,56.5,30.27,ESE,116,3.0,3.0,88,0.00,,,0.00,Wunderground v.1.15,2013-11-15 16:30:00,
2013-11-15 11:35:00,60.2,56.6,30.27,ENE,73,0.0,3.0,88,0.00,,,0.00,Wunderground v.1.15,2013-11-15 16:35:00,
2013-11-15 11:40:00,60.5,56.9,30.27,ENE,73,0.0,0.0,88,0.00,,,0.00,Wunderground v.1.15,2013-11-15 16:40:00,
2013-11-15 11:45:00,60.7,57.1,30.27,ENE,73,0.0,2.0,88,0.00,,,0.00,Wunderground v.1.15,2013-11-15 16:45:00,
2013-11-15 11:50:00,60.9,57.3,30.27,ENE,73,0.0,0.0,88,0.00,,,0.00,Wunderground v.1.15,2013-11-15 16:50:00,
2013-11-15 11:56:00,61.2,57.6,30.27,ENE,73,0.0,1.0,88,0.00,,,0.00,Wunderground v.1.15,2013-11-15 16:56:00,
2013-11-15 12:01:00,61.3,57.4,30.26,WSW,257,0.0,1.0,87,0.00,,,0.00,Wunderground v.1.15,2013-11-15 17:01:00,
2013-11-15 12:06:00,61.3,57.4,30.26,South,185,0.0,2.0,87,0.00,,,0.00,Wunderground v.1.15,2013-11-15 17:06:00,
2013-11-15 12:11:00,61.3,57.4,30.26,ESE,111,0.0,3.0,87,0.00,,,0.00,Wunderground v.1.15,2013-11-15 17:11:00,
2013-11-15 12:16:00,61.5,57.6,30.26,ESE,112,0.0,3.0,87,0.00,,,0.00,Wunderground v.1.15,2013-11-15 17:16:00,
2013-11-15 12:21:00,61.5,57.6,30.26,ESE,112,0.0,0.0,87,0.00,,,0.00,Wunderground v.1.15,2013-11-15 17:21:00,
2013-11-15 12:26:00,61.6,57.7,30.26,ESE,112,0.0,1.0,87,0.00,,,0.00,Wunderground v.1.15,2013-11-15 17:26:00,
2013-11-15 12:31:00,61.8,57.9,30.24,South,188,0.0,1.0,87,0.00,,,0.00,Wunderground v.1.15,2013-11-15 17:31:00,
2013-11-15 12:36:00,61.8,57.9,30.24,SSE,163,0.0,2.0,87,0.00,,,0.00,Wunderground v.1.15,2013-11-15 17:36:00,
2013-11-15 12:41:00,62.0,58.4,30.24,SSE,163,0.0,0.0,88,0.00,,,0.00,Wunderground v.1.15,2013-11-15 17:41:00,
2013-11-15 12:46:00,62.0,58.4,30.23,SSE,152,0.0,2.0,88,0.00,,,0.00,Wunderground v.1.15,2013-11-15 17:46:00,
2013-11-15 12:51:00,62.1,58.5,30.23,West,274,0.0,0.0,88,0.00,,,0.00,Wunderground v.1.15,2013-11-15 17:51:00,
2013-11-15 12:56:00,62.1,58.5,30.23,West,274,0.0,0.0,88,0.00,,,0.00,Wunderground v.1.15,2013-11-15 17:56:00,
2013-11-15 13:01:00,62.3,58.7,30.23,West,274,0.0,0.0,88,0.00,,,0.00,Wunderground v.1.15,2013-11-15 18:01:00,
2013-11-15 13:06:00,62.3,58.7,30.23,West,274,0.0,0.0,88,0.00,,,0.00,Wunderground v.1.15,2013-11-15 18:06:00,
2013-11-15 13:11:00,62.4,58.8,30.23,West,274,0.0,0.0,88,0.00,,,0.00,Wunderground v.1.15,2013-11-15 18:11:00,
2013-11-15 13:16:00,62.6,59.0,30.23,West,273,0.0,2.0,88,0.00,,,0.00,Wunderground v.1.15,2013-11-15 18:16:00,
2013-11-15 13:21:00,62.7,59.1,30.23,West,279,0.0,0.0,88,0.00,,,0.00,Wunderground v.1.15,2013-11-15 18:21:00,
2013-11-15 13:26:00,62.9,59.3,30.23,West,279,0.0,0.0,88,0.00,,,0.00,Wunderground v.1.15,2013-11-15 18:26:00,
2013-11-15 13:31:00,63.1,59.2,30.21,West,279,0.0,0.0,87,0.00,,,0.00,Wunderground v.1.15,2013-11-15 18:31:00,
2013-11-15 13:37:00,63.1,59.2,30.21,West,279,0.0,0.0,87,0.00,,,0.00,Wunderground v.1.15,2013-11-15 18:37:00,
2013-11-15 13:42:00,63.2,59.3,30.21,West,279,0.0,0.0,87,0.00,,,0.00,Wunderground v.1.15,2013-11-15 18:42:00,
2013-11-15 13:48:00,63.4,59.5,30.20,West,276,0.0,0.0,87,0.00,,,0.00,Wunderground v.1.15,2013-11-15 18:48:00,
2013-11-15 13:53:00,63.5,59.6,30.20,West,276,0.0,0.0,87,0.00,,,0.00,Wunderground v.1.15,2013-11-15 18:53:00,
2013-11-15 13:58:00,63.7,59.8,30.20,ESE,112,0.0,1.0,87,0.00,,,0.00,Wunderground v.1.15,2013-11-15 18:58:00,
2013-11-15 14:03:00,63.7,59.8,30.19,WSW,257,0.0,0.0,87,0.00,,,0.00,Wunderground v.1.15,2013-11-15 19:03:00,
2013-11-15 14:08:00,63.9,60.0,30.19,SE,145,0.0,3.0,87,0.00,,,0.00,Wunderground v.1.15,2013-11-15 19:08:00,
2013-11-15 14:13:00,64.0,60.1,30.19,West,274,0.0,2.0,87,0.00,,,0.00,Wunderground v.1.15,2013-11-15 19:13:00,
2013-11-15 14:19:00,64.2,60.2,30.18,West,274,0.0,2.0,87,0.00,,,0.00,Wunderground v.1.15,2013-11-15 19:19:00,
2013-11-15 14:24:00,64.3,60.3,30.18,West,274,0.0,0.0,87,0.00,,,0.00,Wunderground v.1.15,2013-11-15 19:24:00,
2013-11-15 14:29:00,64.3,60.0,30.18,West,272,0.0,0.0,86,0.00,,,0.00,Wunderground v.1.15,2013-11-15 19:29:00,
2013-11-15 14:34:00,64.3,60.3,30.18,West,265,0.0,0.0,87,0.00,,,0.00,Wunderground v.1.15,2013-11-15 19:34:00,
2013-11-15 14:39:00,64.5,60.2,30.18,West,263,0.0,0.0,86,0.00,,,0.00,Wunderground v.1.15,2013-11-15 19:39:00,
2013-11-15 14:44:00,64.5,60.2,30.19,West,263,0.0,1.0,86,0.00,,,0.00,Wunderground v.1.15,2013-11-15 19:44:00,
2013-11-15 14:49:00,64.5,60.2,30.19,West,265,0.0,1.0,86,0.00,,,0.00,Wunderground v.1.15,2013-11-15 19:49:00,
2013-11-15 14:54:00,64.7,60.7,30.19,West,263,0.0,0.0,87,0.00,,,0.00,Wunderground v.1.15,2013-11-15 19:54:00,
2013-11-15 14:59:00,64.7,60.7,30.18,West,265,0.0,0.0,87,0.00,,,0.00,Wunderground v.1.15,2013-11-15 19:59:00,
2013-11-15 15:04:00,64.7,60.7,30.18,West,265,0.0,0.0,87,0.00,,,0.00,Wunderground v.1.15,2013-11-15 20:04:00,
2013-11-15 15:09:00,64.7,60.7,30.18,West,265,0.0,0.0,87,0.00,,,0.00,Wunderground v.1.15,2013-11-15 20:09:00,
2013-11-15 15:14:00,64.7,60.7,30.18,West,265,0.0,0.0,87,0.00,,,0.00,Wunderground v.1.15,2013-11-15 20:14:00,
2013-11-15 15:19:00,64.8,60.8,30.18,West,265,0.0,0.0,87,0.00,,,0.00,Wunderground v.1.15,2013-11-15 20:19:00,
2013-11-15 15:24:00,64.8,60.8,30.18,West,265,0.0,0.0,87,0.00,,,0.00,Wunderground v.1.15,2013-11-15 20:24:00,
2013-11-15 15:29:00,64.7,60.4,30.18,West,263,0.0,0.0,86,0.00,,,0.00,Wunderground v.1.15,2013-11-15 20:29:00,
2013-11-15 15:35:00,64.7,60.4,30.18,West,263,0.0,0.0,86,0.00,,,0.00,Wunderground v.1.15,2013-11-15 20:35:00,
2013-11-15 15:40:00,64.7,60.4,30.18,NNW,335,0.0,0.0,86,0.00,,,0.00,Wunderground v.1.15,2013-11-15 20:40:00,
2013-11-15 15:45:00,64.7,60.4,30.18,NNW,335,0.0,0.0,86,0.00,,,0.00,Wunderground v.1.15,2013-11-15 20:45:00,
2013-11-15 15:50:00,64.7,60.4,30.18,NNW,335,0.0,0.0,86,0.00,,,0.00,Wunderground v.1.15,2013-11-15 20:50:00,
2013-11-15 15:55:00,64.5,60.5,30.18,NNW,335,0.0,0.0,87,0.00,,,0.00,Wunderground v.1.15,2013-11-15 20:55:00,
2013-11-15 16:00:00,64.5,60.5,30.18,NNW,342,0.0,0.0,87,0.00,,,0.00,Wunderground v.1.15,2013-11-15 21:00:00,
2013-11-15 16:05:00,64.7,60.7,30.18,NNW,342,0.0,0.0,87,0.00,,,0.00,Wunderground v.1.15,2013-11-15 21:05:00,
2013-11-15 16:11:00,64.5,60.5,30.18,NNW,342,0.0,0.0,87,0.00,,,0.00,Wunderground v.1.15,2013-11-15 21:11:00,
2013-11-15 16:16:00,64.5,60.5,30.17,NNW,342,0.0,0.0,87,0.00,,,0.00,Wunderground v.1.15,2013-11-15 21:16:00,
2013-11-15 16:21:00,64.3,60.3,30.17,NNW,342,0.0,0.0,87,0.00,,,0.00,Wunderground v.1.15,2013-11-15 21:21:00,
2013-11-15 16:26:00,64.2,60.2,30.17,NNW,342,0.0,0.0,87,0.00,,,0.00,Wunderground v.1.15,2013-11-15 21:26:00,
2013-11-15 16:31:00,64.2,60.6,30.17,NNW,342,0.0,0.0,88,0.00,,,0.00,Wunderground v.1.15,2013-11-15 21:31:00,
2013-11-15 16:36:00,64.2,60.6,30.17,NNW,342,0.0,0.0,88,0.00,,,0.00,Wunderground v.1.15,2013-11-15 21:36:00,
2013-11-15 16:41:00,64.0,60.4,30.17,NNW,342,0.0,0.0,88,0.00,,,0.00,Wunderground v.1.15,2013-11-15 21:41:00,
2013-11-15 16:46:00,64.0,60.7,30.17,NNW,337,0.0,0.0,89,0.00,,,0.00,Wunderground v.1.15,2013-11-15 21:46:00,
2013-11-15 16:51:00,63.9,60.6,30.17,NNW,337,0.0,0.0,89,0.00,,,0.00,Wunderground v.1.15,2013-11-15 21:51:00,
2013-11-15 16:56:00,63.9,60.6,30.17,NNW,337,0.0,0.0,89,0.00,,,0.00,Wunderground v.1.15,2013-11-15 21:56:00,
2013-11-15 17:01:00,63.7,60.4,30.16,NNW,337,0.0,0.0,89,0.00,,,0.00,Wunderground v.1.15,2013-11-15 22:01:00,
2013-11-15 17:06:00,63.7,60.4,30.16,NNW,337,0.0,0.0,89,0.00,,,0.00,Wunderground v.1.15,2013-11-15 22:06:00,
2013-11-15 17:11:00,63.5,60.2,30.16,NNW,337,0.0,0.0,89,0.00,,,0.00,Wunderground v.1.15,2013-11-15 22:11:00,
2013-11-15 17:16:00,63.5,60.2,30.15,NNW,337,0.0,0.0,89,0.00,,,0.00,Wunderground v.1.15,2013-11-15 22:16:00,
2013-11-15 17:21:00,63.4,60.1,30.15,NNW,337,0.0,0.0,89,0.00,,,0.00,Wunderground v.1.15,2013-11-15 22:21:00,
2013-11-15 17:26:00,63.4,60.1,30.15,NNW,337,0.0,0.0,89,0.00,,,0.00,Wunderground v.1.15,2013-11-15 22:26:00,
2013-11-15 17:31:00,63.2,60.2,30.15,NNW,341,0.0,0.0,90,0.00,,,0.00,Wunderground v.1.15,2013-11-15 22:31:00,
2013-11-15 17:36:00,63.2,60.2,30.15,NNW,339,0.0,0.0,90,0.00,,,0.00,Wunderground v.1.15,2013-11-15 22:36:00,
2013-11-15 17:41:00,63.2,60.2,30.15,NNW,339,0.0,0.0,90,0.00,,,0.00,Wunderground v.1.15,2013-11-15 22:41:00,
2013-11-15 17:46:00,63.1,60.4,30.16,NNW,339,0.0,0.0,91,0.00,,,0.00,Wunderground v.1.15,2013-11-15 22:46:00,
2013-11-15 17:52:00,63.1,60.4,30.16,NNW,339,0.0,0.0,91,0.00,,,0.00,Wunderground v.1.15,2013-11-15 22:52:00,
2013-11-15 17:57:00,63.1,60.4,30.16,NNW,339,0.0,0.0,91,0.00,,,0.00,Wunderground v.1.15,2013-11-15 22:57:00,
2013-11-15 18:02:00,62.9,60.2,30.17,NNW,339,0.0,0.0,91,0.00,,,0.00,Wunderground v.1.15,2013-11-15 23:02:00,
2013-11-15 18:07:00,62.9,60.2,30.17,NNW,339,0.0,0.0,91,0.00,,,0.00,Wunderground v.1.15,2013-11-15 23:07:00,
2013-11-15 18:12:00,62.9,60.5,30.17,NNW,339,0.0,0.0,92,0.00,,,0.00,Wunderground v.1.15,2013-11-15 23:12:00,
2013-11-15 18:17:00,62.9,60.5,30.18,NNW,339,0.0,0.0,92,0.00,,,0.00,Wunderground v.1.15,2013-11-15 23:17:00,
2013-11-15 18:22:00,62.9,60.5,30.18,NNW,339,0.0,0.0,92,0.00,,,0.00,Wunderground v.1.15,2013-11-15 23:22:00,
2013-11-15 18:27:00,62.9,60.5,30.18,NNW,339,0.0,0.0,92,0.00,,,0.00,Wunderground v.1.15,2013-11-15 23:27:00,
2013-11-15 18:32:00,62.7,60.3,30.18,NNW,339,0.0,0.0,92,0.00,,,0.00,Wunderground v.1.15,2013-11-15 23:32:00,
2013-11-15 18:38:00,62.7,60.3,30.18,NNW,339,0.0,0.0,92,0.00,,,0.00,Wunderground v.1.15,2013-11-15 23:38:00,
2013-11-15 18:43:00,62.7,60.3,30.18,NNW,339,0.0,0.0,92,0.00,,,0.00,Wunderground v.1.15,2013-11-15 23:43:00,
2013-11-15 18:48:00,62.7,60.3,30.18,NNW,341,0.0,0.0,92,0.00,,,0.00,Wunderground v.1.15,2013-11-15 23:48:00,
2013-11-15 18:53:00,62.6,60.2,30.18,NNW,341,0.0,0.0,92,0.00,,,0.00,Wunderground v.1.15,2013-11-15 23:53:00,
2013-11-15 18:58:00,62.6,60.2,30.18,NNW,341,0.0,1.0,92,0.00,,,0.00,Wunderground v.1.15,2013-11-15 23:58:00,
2013-11-15 19:04:00,62.6,60.2,30.18,NNW,341,0.0,0.0,92,0.00,,,0.00,Wunderground v.1.15,2013-11-16 00:04:00,
2013-11-15 19:09:00,62.6,60.5,30.18,NNW,341,0.0,0.0,93,0.00,,,0.00,Wunderground v.1.15,2013-11-16 00:09:00,
2013-11-15 19:14:00,62.6,60.5,30.17,NNW,341,0.0,0.0,93,0.00,,,0.00,Wunderground v.1.15,2013-11-16 00:14:00,
2013-11-15 19:19:00,62.6,60.5,30.17,NNE,19,0.0,2.0,93,0.00,,,0.00,Wunderground v.1.15,2013-11-16 00:19:00,
2013-11-15 19:25:00,62.6,60.5,30.17,NNE,20,0.0,2.0,93,0.00,,,0.00,Wunderground v.1.15,2013-11-16 00:25:00,
2013-11-15 19:30:00,62.6,60.5,30.17,NNE,26,0.0,0.0,93,0.00,,,0.00,Wunderground v.1.15,2013-11-16 00:30:00,
2013-11-15 19:35:00,62.4,60.3,30.17,East,81,0.0,2.0,93,0.00,,,0.00,Wunderground v.1.15,2013-11-16 00:35:00,
2013-11-15 19:40:00,62.4,60.3,30.17,East,81,0.0,0.0,93,0.00,,,0.00,Wunderground v.1.15,2013-11-16 00:40:00,
2013-11-15 19:45:00,62.4,60.3,30.17,East,81,0.0,0.0,93,0.00,,,0.00,Wunderground v.1.15,2013-11-16 00:45:00,
2013-11-15 19:50:00,62.4,60.3,30.17,East,81,0.0,0.0,93,0.00,,,0.00,Wunderground v.1.15,2013-11-16 00:50:00,
2013-11-15 19:55:00,62.4,60.7,30.17,East,81,0.0,0.0,94,0.00,,,0.00,Wunderground v.1.15,2013-11-16 00:55:00,
2013-11-15 20:01:00,62.4,60.7,30.17,East,81,0.0,0.0,94,0.00,,,0.00,Wunderground v.1.15,2013-11-16 01:01:00,
2013-11-15 20:06:00,62.4,60.7,30.17,East,81,0.0,0.0,94,0.00,,,0.00,Wunderground v.1.15,2013-11-16 01:06:00,
2013-11-15 20:11:00,62.3,60.6,30.17,East,81,0.0,0.0,94,0.00,,,0.00,Wunderground v.1.15,2013-11-16 01:11:00,
2013-11-15 20:16:00,62.3,60.6,30.17,East,81,0.0,0.0,94,0.00,,,0.00,Wunderground v.1.15,2013-11-16 01:16:00,
2013-11-15 20:21:00,62.3,60.6,30.17,East,81,0.0,0.0,94,0.00,,,0.00,Wunderground v.1.15,2013-11-16 01:21:00,
2013-11-15 20:26:00,62.3,60.6,30.17,East,81,0.0,0.0,94,0.00,,,0.00,Wunderground v.1.15,2013-11-16 01:26:00,
2013-11-15 20:31:00,62.4,60.9,30.18,East,81,0.0,0.0,95,0.00,,,0.00,Wunderground v.1.15,2013-11-16 01:31:00,
2013-11-15 20:36:00,62.4,60.9,30.18,East,81,0.0,0.0,95,0.00,,,0.00,Wunderground v.1.15,2013-11-16 01:36:00,
2013-11-15 20:41:00,62.4,60.9,30.18,East,81,1.0,1.0,95,0.00,,,0.00,Wunderground v.1.15,2013-11-16 01:41:00,
2013-11-15 20:46:00,62.6,61.1,30.18,East,81,0.0,1.0,95,0.00,,,0.00,Wunderground v.1.15,2013-11-16 01:46:00,
2013-11-15 20:51:00,62.6,61.1,30.18,East,81,0.0,0.0,95,0.00,,,0.00,Wunderground v.1.15,2013-11-16 01:51:00,
2013-11-15 20:56:00,62.6,61.1,30.18,East,81,0.0,0.0,95,0.00,,,0.00,Wunderground v.1.15,2013-11-16 01:56:00,
2013-11-15 21:01:00,62.6,61.1,30.18,East,81,0.0,0.0,95,0.00,,,0.00,Wunderground v.1.15,2013-11-16 02:01:00,
2013-11-15 21:07:00,62.6,61.1,30.18,East,81,0.0,0.0,95,0.00,,,0.00,Wunderground v.1.15,2013-11-16 02:07:00,
2013-11-15 21:12:00,62.6,61.1,30.18,East,81,0.0,0.0,95,0.00,,,0.00,Wunderground v.1.15,2013-11-16 02:12:00,
2013-11-15 21:17:00,62.6,61.1,30.19,East,81,0.0,0.0,95,0.00,,,0.00,Wunderground v.1.15,2013-11-16 02:17:00,
2013-11-15 21:22:00,62.6,61.1,30.19,East,81,0.0,0.0,95,0.00,,,0.00,Wunderground v.1.15,2013-11-16 02:22:00,
2013-11-15 21:27:00,62.4,60.9,30.19,East,81,0.0,0.0,95,0.00,,,0.00,Wunderground v.1.15,2013-11-16 02:27:00,
2013-11-15 21:32:00,62.4,60.9,30.20,East,81,0.0,0.0,95,0.00,,,0.00,Wunderground v.1.15,2013-11-16 02:32:00,
2013-11-15 21:37:00,62.4,60.9,30.20,East,81,0.0,0.0,95,0.00,,,0.00,Wunderground v.1.15,2013-11-16 02:37:00,
2013-11-15 21:42:00,62.4,60.9,30.20,East,81,0.0,0.0,95,0.00,,,0.00,Wunderground v.1.15,2013-11-16 02:42:00,
2013-11-15 21:47:00,62.4,60.9,30.20,East,81,0.0,0.0,95,0.00,,,0.00,Wunderground v.1.15,2013-11-16 02:47:00,
2013-11-15 21:52:00,62.4,60.9,30.20,East,81,0.0,0.0,95,0.00,,,0.00,Wunderground v.1.15,2013-11-16 02:52:00,
2013-11-15 21:57:00,62.3,60.8,30.20,East,81,0.0,0.0,95,0.00,,,0.00,Wunderground v.1.15,2013-11-16 02:57:00,
2013-11-15 22:02:00,62.3,60.8,30.20,East,81,0.0,0.0,95,0.00,,,0.00,Wunderground v.1.15,2013-11-16 03:02:00,
2013-11-15 22:07:00,62.3,61.1,30.20,East,81,0.0,0.0,96,0.00,,,0.00,Wunderground v.1.15,2013-11-16 03:07:00,
2013-11-15 22:12:00,62.3,61.1,30.20,East,81,0.0,0.0,96,0.00,,,0.00,Wunderground v.1.15,2013-11-16 03:12:00,
2013-11-15 22:17:00,62.3,61.1,30.20,East,81,0.0,0.0,96,0.00,,,0.00,Wunderground v.1.15,2013-11-16 03:17:00,
2013-11-15 22:22:00,62.3,61.1,30.20,East,81,0.0,0.0,96,0.00,,,0.00,Wunderground v.1.15,2013-11-16 03:22:00,
2013-11-15 22:27:00,62.3,61.1,30.20,East,81,0.0,0.0,96,0.00,,,0.00,Wunderground v.1.15,2013-11-16 03:27:00,
2013-11-15 22:32:00,62.3,61.1,30.20,East,81,0.0,0.0,96,0.00,,,0.00,Wunderground v.1.15,2013-11-16 03:32:00,
2013-11-15 22:37:00,62.1,60.9,30.20,East,81,0.0,0.0,96,0.00,,,0.00,Wunderground v.1.15,2013-11-16 03:37:00,
2013-11-15 22:42:00,62.1,60.9,30.20,East,81,0.0,0.0,96,0.00,,,0.00,Wunderground v.1.15,2013-11-16 03:42:00,
2013-11-15 22:47:00,62.0,60.8,30.20,East,81,0.0,0.0,96,0.00,,,0.00,Wunderground v.1.15,2013-11-16 03:47:00,
2013-11-15 22:52:00,62.0,60.8,30.20,East,81,0.0,0.0,96,0.00,,,0.00,Wunderground v.1.15,2013-11-16 03:52:00,
2013-11-15 22:57:00,61.8,60.6,30.20,East,81,0.0,0.0,96,0.00,,,0.00,Wunderground v.1.15,2013-11-16 03:57:00,
2013-11-15 23:02:00,61.8,60.9,30.20,East,81,0.0,0.0,97,0.00,,,0.01,Wunderground v.1.15,2013-11-16 04:02:00,
2013-11-15 23:07:00,61.6,60.7,30.20,East,81,0.0,0.0,97,0.00,,,0.01,Wunderground v.1.15,2013-11-16 04:07:00,
2013-11-15 23:13:00,61.6,60.7,30.20,East,81,0.0,0.0,97,0.00,,,0.01,Wunderground v.1.15,2013-11-16 04:13:00,
2013-11-15 23:18:00,61.5,60.6,30.20,East,81,0.0,0.0,97,0.00,,,0.01,Wunderground v.1.15,2013-11-16 04:18:00,
2013-11-15 23:24:00,61.5,60.6,30.20,East,81,0.0,0.0,97,0.00,,,0.01,Wunderground v.1.15,2013-11-16 04:24:00,
2013-11-15 23:29:00,61.5,60.9,30.20,East,81,0.0,0.0,98,0.00,,,0.01,Wunderground v.1.15,2013-11-16 04:29:00,
2013-11-15 23:34:00,61.5,60.9,30.20,East,81,0.0,0.0,98,0.00,,,0.01,Wunderground v.1.15,2013-11-16 04:34:00,
2013-11-15 23:39:00,61.5,60.9,30.20,East,81,0.0,0.0,98,0.00,,,0.01,Wunderground v.1.15,2013-11-16 04:39:00,
2013-11-15 23:44:00,61.5,60.9,30.20,East,81,0.0,0.0,98,0.00,,,0.01,Wunderground v.1.15,2013-11-16 04:44:00,
2013-11-15 23:50:00,61.5,60.9,30.20,East,81,0.0,0.0,98,0.00,,,0.01,Wunderground v.1.15,2013-11-16 04:50:00,
2013-11-15 23:55:00,61.5,60.9,30.20,East,81,0.0,0.0,98,0.00,,,0.01,Wunderground v.1.15,2013-11-16 04:55:00,